Time;durP1;ratioP1;P1;durP2;ratioP2;P2;SDS_P1;SDS_P2;PMS_P1;PMS_P2;Temp;Humidity;BMP_temperature;BMP_pressure;BME280_temperature;BME280_humidity;BME280_pressure;Samples;Min_cycle;Max_cycle;Signal;HPM_P1;HPM_P2
2023/01/13 00:02:21;;;;;;;39.15;18.38;;;;;;;;;;6193473;23;20007;-83
2023/01/13 00:04:47;;;;;;;39.83;20.20;;;;;;;;;;6218129;23;20004;-82
2023/01/13 00:07:12;;;;;;;43.22;21.48;;;;;;;;;;6218035;23;20004;-83
2023/01/13 00:09:38;;;;;;;36.90;19.45;;;;;;;;;;6220548;23;20043;-82
2023/01/13 00:12:04;;;;;;;30.75;16.35;;;;;;;;;;6217803;23;20034;-83
2023/01/13 00:14:33;;;;;;;29.33;15.93;;;;;;;;;;6244736;23;20004;-82
2023/01/13 00:16:58;;;;;;;28.95;15.63;;;;;;;;;;6244647;23;19996;-82
2023/01/13 00:19:24;;;;;;;29.83;15.50;;;;;;;;;;6245010;23;20454;-83
2023/01/13 00:21:49;;;;;;;29.42;15.27;;;;;;;;;;6192641;23;20004;-82
2023/01/13 00:24:15;;;;;;;39.08;19.05;;;;;;;;;;6244739;23;20415;-82
2023/01/13 00:26:40;;;;;;;46.63;20.88;;;;;;;;;;6244862;23;20011;-82
2023/01/13 00:29:05;;;;;;;45.72;21.05;;;;;;;;;;6245543;23;20007;-83
2023/01/13 00:31:31;;;;;;;43.95;22.92;;;;;;;;;;6193182;23;20010;-83
2023/01/13 00:33:57;;;;;;;39.05;20.73;;;;;;;;;;6192979;23;20409;-83
2023/01/13 00:36:22;;;;;;;44.20;22.52;;;;;;;;;;6217976;23;20000;-81
2023/01/13 00:38:48;;;;;;;38.25;20.15;;;;;;;;;;6243939;23;20073;-83
2023/01/13 00:41:15;;;;;;;37.42;19.08;;;;;;;;;;6217593;23;20490;-83
2023/01/13 00:43:41;;;;;;;46.50;23.27;;;;;;;;;;6216979;23;20008;-83
2023/01/13 00:46:09;;;;;;;56.83;27.20;;;;;;;;;;6218617;23;20030;-83
2023/01/13 00:48:35;;;;;;;58.90;27.75;;;;;;;;;;6193224;23;20032;-82
2023/01/13 00:51:05;;;;;;;57.60;27.55;;;;;;;;;;6194309;23;20335;-82
2023/01/13 00:53:35;;;;;;;58.92;28.45;;;;;;;;;;6245086;23;20005;-83
2023/01/13 00:56:13;;;;;;;53.20;28.13;;;;;;;;;;6245671;23;20000;-82
2023/01/13 00:58:38;;;;;;;52.33;26.35;;;;;;;;;;6218137;23;20083;-84
2023/01/13 01:01:07;;;;;;;59.97;28.10;;;;;;;;;;6195377;23;20004;-83
2023/01/13 01:03:33;;;;;;;52.97;26.95;;;;;;;;;;6247916;23;20016;-83
2023/01/13 01:06:12;;;;;;;61.42;29.95;;;;;;;;;;6220904;23;20004;-83
2023/01/13 01:08:38;;;;;;;65.60;31.48;;;;;;;;;;6198698;23;20024;-82
2023/01/13 01:11:08;;;;;;;58.30;27.80;;;;;;;;;;6213159;22;20008;-82
2023/01/13 01:13:33;;;;;;;63.90;29.63;;;;;;;;;;6238918;23;20007;-82
2023/01/13 01:15:59;;;;;;;59.95;28.40;;;;;;;;;;6244390;23;19989;-83
2023/01/13 01:18:24;;;;;;;54.60;26.95;;;;;;;;;;6267576;23;20001;-82
2023/01/13 01:20:50;;;;;;;56.25;28.02;;;;;;;;;;6265882;23;20000;-81
2023/01/13 01:23:15;;;;;;;54.47;27.50;;;;;;;;;;6267574;22;20426;-82
2023/01/13 01:25:40;;;;;;;51.33;26.67;;;;;;;;;;6245670;23;20040;-84
2023/01/13 01:28:06;;;;;;;51.90;26.33;;;;;;;;;;6267890;23;19988;-82
2023/01/13 01:30:31;;;;;;;52.38;27.02;;;;;;;;;;6267414;23;20015;-83
2023/01/13 01:32:57;;;;;;;49.80;24.88;;;;;;;;;;6220801;23;20004;-83
2023/01/13 01:35:23;;;;;;;47.05;23.98;;;;;;;;;;6267043;23;20004;-83
2023/01/13 01:37:49;;;;;;;48.25;23.55;;;;;;;;;;6212725;23;20007;-83
2023/01/13 01:40:14;;;;;;;47.70;23.65;;;;;;;;;;6236601;23;20000;-83
2023/01/13 01:45:30;;;;;;;45.95;22.77;;;;;;;;;;6245276;23;20007;-83
2023/01/13 01:48:00;;;;;;;47.78;22.73;;;;;;;;;;6246393;23;20000;-84
2023/01/13 01:50:26;;;;;;;43.80;21.33;;;;;;;;;;6194445;23;20442;-82
2023/01/13 01:52:55;;;;;;;37.20;19.80;;;;;;;;;;6194623;23;20008;-82
2023/01/13 01:55:26;;;;;;;39.30;19.27;;;;;;;;;;6195387;23;20001;-81
2023/01/13 01:58:12;;;;;;;36.90;19.60;;;;;;;;;;6196124;23;20008;-82
2023/01/13 02:00:37;;;;;;;41.90;20.25;;;;;;;;;;6221686;23;20215;-82
2023/01/13 02:03:03;;;;;;;40.13;19.15;;;;;;;;;;6249170;23;20113;-83
2023/01/13 02:05:28;;;;;;;38.88;21.30;;;;;;;;;;6247544;23;20328;-84
2023/01/13 02:07:55;;;;;;;42.72;21.20;;;;;;;;;;6245644;23;20008;-84
2023/01/13 02:10:22;;;;;;;44.85;22.25;;;;;;;;;;6219099;23;20000;-84
2023/01/13 02:12:47;;;;;;;43.15;22.08;;;;;;;;;;6219253;23;20393;-83
2023/01/13 02:15:15;;;;;;;39.15;19.50;;;;;;;;;;6219007;23;20028;-84
2023/01/13 02:17:49;;;;;;;38.33;20.73;;;;;;;;;;6218856;23;20003;-84
2023/01/13 02:20:30;;;;;;;39.83;19.85;;;;;;;;;;6218412;23;20281;-84
2023/01/13 02:26:08;;;;;;;35.42;18.77;;;;;;;;;;6245112;23;20042;-84
2023/01/13 02:31:40;;;;;;;35.60;18.08;;;;;;;;;;6218260;23;19996;-84
2023/01/13 02:31:43;;;;;;;37.17;19.02;;;;;;;;;;6244932;23;20062;-84
2023/01/13 02:34:08;;;;;;;34.72;17.83;;;;;;;;;;6199707;23;20004;-84
2023/01/13 02:36:40;;;;;;;32.28;17.55;;;;;;;;;;6218119;23;19996;-84
2023/01/13 02:39:16;;;;;;;33.60;18.15;;;;;;;;;;6244809;23;20186;-84
2023/01/13 02:44:45;;;;;;;32.55;16.38;;;;;;;;;;6201048;23;20500;-84
2023/01/13 02:47:18;;;;;;;35.47;17.10;;;;;;;;;;6192734;23;20125;-84
2023/01/13 02:49:49;;;;;;;32.42;16.33;;;;;;;;;;6218182;23;20000;-84
2023/01/13 02:52:34;;;;;;;31.23;16.23;;;;;;;;;;6193857;23;20058;-84
2023/01/13 02:55:37;;;;;;;34.08;16.98;;;;;;;;;;6169329;23;20391;-84
2023/01/13 02:58:05;;;;;;;33.67;15.77;;;;;;;;;;6142177;23;20066;-84
2023/01/13 03:00:32;;;;;;;30.75;15.40;;;;;;;;;;6194228;23;20026;-84
2023/01/13 03:02:58;;;;;;;28.90;15.02;;;;;;;;;;6191977;23;20331;-84
2023/01/13 03:05:24;;;;;;;28.38;15.48;;;;;;;;;;6244763;23;20011;-84
2023/01/13 03:08:10;;;;;;;31.00;15.90;;;;;;;;;;6245040;23;20379;-83
2023/01/13 03:11:06;;;;;;;27.45;14.45;;;;;;;;;;6192858;23;20448;-84
2023/01/13 03:13:32;;;;;;;32.38;15.95;;;;;;;;;;6218209;23;20004;-84
2023/01/13 03:16:09;;;;;;;29.90;15.90;;;;;;;;;;6245072;23;20135;-84
2023/01/13 03:18:43;;;;;;;33.03;17.83;;;;;;;;;;6217752;23;20007;-84
2023/01/13 03:21:33;;;;;;;35.05;19.10;;;;;;;;;;6244644;23;20440;-84
2023/01/13 03:24:10;;;;;;;35.83;18.88;;;;;;;;;;6225676;23;20008;-84
2023/01/13 03:26:41;;;;;;;35.55;20.77;;;;;;;;;;6217726;23;20394;-84
2023/01/13 03:29:06;;;;;;;;;;;;;;;;;;6193709;23;20008;-84
2023/01/13 03:31:32;;;;;;;34.90;19.35;;;;;;;;;;6244768;23;19908;-84
2023/01/13 03:34:04;;;;;;;39.00;20.10;;;;;;;;;;6194641;23;20011;-84
2023/01/13 03:36:29;;;;;;;32.22;18.27;;;;;;;;;;6193037;23;20343;-84
2023/01/13 03:38:57;;;;;;;43.92;21.38;;;;;;;;;;6228206;23;20018;-84
2023/01/13 03:41:28;;;;;;;34.90;20.00;;;;;;;;;;6217604;23;20008;-84
2023/01/13 03:44:20;;;;;;;35.03;18.98;;;;;;;;;;6243514;23;20031;-84
2023/01/13 03:47:20;;;;;;;37.88;18.30;;;;;;;;;;6244382;22;20084;-84
2023/01/13 03:50:06;;;;;;;35.53;16.98;;;;;;;;;;6219279;23;20082;-84
2023/01/13 03:52:36;;;;;;;32.05;15.50;;;;;;;;;;6221010;23;20037;-83
2023/01/13 03:55:17;;;;;;;34.60;15.82;;;;;;;;;;6193340;23;20397;-83
2023/01/13 03:57:47;;;;;;;32.25;15.98;;;;;;;;;;6218416;23;20007;-83
2023/01/13 04:00:13;;;;;;;;;;;;;;;;;;6218703;23;20000;-83
2023/01/13 04:02:51;;;;;;;27.73;14.98;;;;;;;;;;6244335;22;19931;-84
2023/01/13 04:05:17;;;;;;;28.35;15.68;;;;;;;;;;6242541;22;20050;-83
2023/01/13 04:07:50;;;;;;;31.65;16.38;;;;;;;;;;6217835;23;20000;-84
2023/01/13 04:10:36;;;;;;;31.85;16.10;;;;;;;;;;6243040;23;20004;-83
2023/01/13 04:13:04;;;;;;;40.83;21.40;;;;;;;;;;6218203;23;20011;-83
2023/01/13 04:15:40;;;;;;;32.58;17.20;;;;;;;;;;6193147;23;20004;-83
2023/01/13 04:18:16;;;;;;;38.80;20.85;;;;;;;;;;6192807;23;20087;-83
2023/01/13 04:20:43;;;;;;;36.88;18.67;;;;;;;;;;6242648;23;20030;-84
2023/01/13 04:23:08;;;;;;;43.15;22.35;;;;;;;;;;6243217;23;20043;-83
2023/01/13 04:25:34;;;;;;;39.33;18.92;;;;;;;;;;6242925;23;20344;-84
2023/01/13 04:28:00;;;;;;;34.58;18.42;;;;;;;;;;6217840;23;20377;-83
2023/01/13 04:30:25;;;;;;;32.85;17.13;;;;;;;;;;6244057;22;20418;-83
2023/01/13 04:32:51;;;;;;;33.42;16.90;;;;;;;;;;6244382;23;20004;-84
2023/01/13 04:35:16;;;;;;;34.88;18.77;;;;;;;;;;6243007;23;20008;-83
2023/01/13 04:37:41;;;;;;;35.70;19.15;;;;;;;;;;6242522;23;20008;-83
2023/01/13 04:40:07;;;;;;;40.97;19.88;;;;;;;;;;6243670;23;20004;-83
2023/01/13 04:42:33;;;;;;;49.25;23.00;;;;;;;;;;6218170;23;20000;-83
2023/01/13 04:44:58;;;;;;;44.50;20.60;;;;;;;;;;6244236;23;20004;-84
2023/01/13 04:47:24;;;;;;;46.08;21.50;;;;;;;;;;6244322;23;20009;-82
2023/01/13 04:49:49;;;;;;;45.80;22.85;;;;;;;;;;6217730;23;20328;-82
2023/01/13 04:52:14;;;;;;;135.98;59.78;;;;;;;;;;6217279;23;20035;-83
2023/01/13 04:54:40;;;;;;;62.45;27.65;;;;;;;;;;6217675;23;20004;-82
2023/01/13 04:57:05;;;;;;;53.47;25.20;;;;;;;;;;6244288;23;20027;-83
2023/01/13 04:59:31;;;;;;;50.53;23.38;;;;;;;;;;6244286;23;20429;-82
2023/01/13 05:01:56;;;;;;;53.83;23.73;;;;;;;;;;6220883;23;20023;-82
2023/01/13 05:04:22;;;;;;;46.00;21.90;;;;;;;;;;6222197;23;20004;-83
2023/01/13 05:06:47;;;;;;;49.42;22.50;;;;;;;;;;6220246;23;20346;-82
2023/01/13 05:09:14;;;;;;;48.78;22.55;;;;;;;;;;6249576;23;20332;-82
2023/01/13 05:17:09;;;;;;;44.13;19.42;;;;;;;;;;6202535;23;20007;-83
2023/01/13 05:19:37;;;;;;;41.75;20.25;;;;;;;;;;6195046;23;20107;-82
2023/01/13 05:27:31;;;;;;;56.13;24.05;;;;;;;;;;6245879;23;20505;-82
2023/01/13 05:29:57;;;;;;;46.13;21.35;;;;;;;;;;6245719;23;20004;-82
2023/01/13 05:32:22;;;;;;;41.15;19.00;;;;;;;;;;6246091;23;20010;-82
2023/01/13 05:34:48;;;;;;;41.22;19.20;;;;;;;;;;6195906;23;20031;-77
2023/01/13 05:37:14;;;;;;;35.78;18.77;;;;;;;;;;6246920;23;20011;-78
2023/01/13 05:45:11;;;;;;;40.28;18.92;;;;;;;;;;6248616;23;20107;-79
2023/01/13 05:47:37;;;;;;;37.50;18.77;;;;;;;;;;6247759;23;20004;-80
2023/01/13 05:50:03;;;;;;;39.58;18.67;;;;;;;;;;6246250;22;20079;-80
2023/01/13 05:52:28;;;;;;;37.38;18.98;;;;;;;;;;6240253;23;20008;-78
2023/01/13 05:54:57;;;;;;;40.15;18.83;;;;;;;;;;6240074;23;20355;-80
2023/01/13 05:57:23;;;;;;;39.92;17.60;;;;;;;;;;6238623;23;20000;-78
2023/01/13 05:59:50;;;;;;;38.63;18.67;;;;;;;;;;6236850;23;20008;-79
2023/01/13 06:02:16;;;;;;;37.85;17.85;;;;;;;;;;6209726;23;20035;-78
2023/01/13 06:04:46;;;;;;;37.92;17.42;;;;;;;;;;6236576;22;20119;-78
2023/01/13 06:07:12;;;;;;;38.75;18.15;;;;;;;;;;6236868;23;20028;-80
2023/01/13 06:09:38;;;;;;;39.45;17.98;;;;;;;;;;6235338;23;20000;-79
2023/01/13 06:12:04;;;;;;;38.25;19.70;;;;;;;;;;6240824;22;20077;-79
2023/01/13 06:14:38;;;;;;;41.38;20.25;;;;;;;;;;6239694;22;20470;-76
2023/01/13 06:17:13;;;;;;;66.57;26.17;;;;;;;;;;6212794;23;20030;-80
2023/01/13 06:19:39;;;;;;;61.90;26.20;;;;;;;;;;6238404;23;20010;-83
2023/01/13 06:22:20;;;;;;;67.18;27.25;;;;;;;;;;6211594;23;20024;-84
2023/01/13 06:24:46;;;;;;;73.22;26.70;;;;;;;;;;6236688;23;20030;-82
2023/01/13 06:27:12;;;;;;;79.13;29.02;;;;;;;;;;6237427;23;20029;-83
2023/01/13 06:29:37;;;;;;;62.30;24.02;;;;;;;;;;6239378;22;20355;-84
2023/01/13 06:32:16;;;;;;;36.42;16.55;;;;;;;;;;6240381;23;20011;-85
2023/01/13 06:34:43;;;;;;;32.75;16.20;;;;;;;;;;6242061;23;20088;-83
2023/01/13 06:37:10;;;;;;;34.92;17.20;;;;;;;;;;6244088;22;20020;-84
2023/01/13 06:39:35;;;;;;;37.67;16.23;;;;;;;;;;6243063;23;20000;-83
2023/01/13 06:44:45;;;;;;;35.35;16.55;;;;;;;;;;6242805;23;20015;-84
2023/01/13 06:47:17;;;;;;;38.53;17.00;;;;;;;;;;6219808;23;20004;-85
2023/01/13 06:49:43;;;;;;;49.42;20.95;;;;;;;;;;6251597;23;20032;-86
2023/01/13 06:52:08;;;;;;;42.20;18.88;;;;;;;;;;6247185;22;20612;-83
2023/01/13 06:54:34;;;;;;;50.30;23.00;;;;;;;;;;6242146;23;20335;-82
2023/01/13 06:57:00;;;;;;;39.28;18.73;;;;;;;;;;6240419;23;20000;-84
2023/01/13 06:59:26;;;;;;;40.58;18.88;;;;;;;;;;6214150;23;20091;-84
2023/01/13 07:01:51;;;;;;;41.58;19.98;;;;;;;;;;6242070;22;20046;-84
2023/01/13 07:04:17;;;;;;;45.63;22.17;;;;;;;;;;6241842;23;20008;-82
2023/01/13 07:06:43;;;;;;;34.40;16.70;;;;;;;;;;6242587;22;20004;-83
2023/01/13 07:09:08;;;;;;;47.97;22.02;;;;;;;;;;6242084;23;20007;-82
2023/01/13 07:11:34;;;;;;;33.00;16.83;;;;;;;;;;6242680;22;20011;-84
2023/01/13 07:16:44;;;;;;;33.10;16.00;;;;;;;;;;6242382;23;20015;-83
2023/01/13 07:19:09;;;;;;;38.05;16.88;;;;;;;;;;6242852;23;20000;-84
2023/01/13 07:21:35;;;;;;;38.90;17.30;;;;;;;;;;6244893;22;20023;-82
2023/01/13 07:24:02;;;;;;;34.17;17.10;;;;;;;;;;6244515;23;20012;-82
2023/01/13 07:26:28;;;;;;;37.50;17.15;;;;;;;;;;6240230;22;20007;-82
2023/01/13 07:28:59;;;;;;;35.42;17.25;;;;;;;;;;6243913;22;20566;-81
2023/01/13 07:31:42;;;;;;;43.30;19.98;;;;;;;;;;6219339;23;20008;-81
2023/01/13 07:34:07;;;;;;;41.40;20.02;;;;;;;;;;6242707;22;20007;-83
2023/01/13 07:36:33;;;;;;;49.95;22.67;;;;;;;;;;6244180;23;20436;-83
2023/01/13 07:39:04;;;;;;;48.33;20.30;;;;;;;;;;6217638;23;21088;-84
2023/01/13 07:44:14;;;;;;;55.90;25.05;;;;;;;;;;6245894;23;20018;-82
2023/01/13 07:46:39;;;;;;;65.28;27.75;;;;;;;;;;6215911;23;20276;-83
2023/01/13 07:49:08;;;;;;;84.32;39.00;;;;;;;;;;6190745;23;20023;-85
2023/01/13 07:51:37;;;;;;;84.82;37.17;;;;;;;;;;6241334;23;20339;-85
2023/01/13 07:54:03;;;;;;;89.05;41.38;;;;;;;;;;6236096;22;20027;-81
2023/01/13 07:56:28;;;;;;;94.03;38.50;;;;;;;;;;6235787;23;20451;-82
2023/01/13 07:58:57;;;;;;;78.18;36.00;;;;;;;;;;6237022;23;20007;-82
2023/01/13 08:01:23;;;;;;;77.93;34.63;;;;;;;;;;6236344;23;20050;-85
2023/01/13 08:03:49;;;;;;;70.15;32.78;;;;;;;;;;6216526;23;20431;-92
2023/01/13 08:06:19;;;;;;;70.47;33.50;;;;;;;;;;6237596;23;20004;-86
2023/01/13 08:08:44;;;;;;;63.25;28.90;;;;;;;;;;6236011;23;20018;-85
2023/01/13 08:11:13;;;;;;;64.95;26.65;;;;;;;;;;6211831;23;20301;-83
2023/01/13 08:13:42;;;;;;;57.22;19.92;;;;;;;;;;6239052;23;20482;-86
2023/01/13 08:16:09;;;;;;;51.50;19.52;;;;;;;;;;6239276;23;20339;-84
2023/01/13 08:18:35;;;;;;;54.63;21.10;;;;;;;;;;6241092;22;20087;-82
2023/01/13 08:21:05;;;;;;;58.63;21.75;;;;;;;;;;6242786;23;20376;-84
2023/01/13 08:23:30;;;;;;;86.55;35.75;;;;;;;;;;6243022;22;20008;-85
2023/01/13 08:26:13;;;;;;;104.32;39.55;;;;;;;;;;6239986;22;20032;-88
2023/01/13 08:28:41;;;;;;;91.35;38.42;;;;;;;;;;6188641;23;20090;-82
2023/01/13 08:31:12;;;;;;;88.68;35.05;;;;;;;;;;6239071;23;20050;-84
2023/01/13 08:33:38;;;;;;;77.65;32.95;;;;;;;;;;6240390;23;20053;-84
2023/01/13 08:36:04;;;;;;;73.20;29.73;;;;;;;;;;6239406;23;20106;-84
2023/01/13 08:38:31;;;;;;;101.15;37.92;;;;;;;;;;6238007;23;20081;-87
2023/01/13 08:40:56;;;;;;;91.65;38.17;;;;;;;;;;6239349;23;20004;-87
2023/01/13 08:43:22;;;;;;;102.80;39.85;;;;;;;;;;6236856;23;20001;-85
2023/01/13 08:45:58;;;;;;;76.90;32.35;;;;;;;;;;6242220;23;20122;-84
2023/01/13 08:48:24;;;;;;;64.85;24.75;;;;;;;;;;6238497;22;20007;-85
2023/01/13 08:50:49;;;;;;;56.92;23.10;;;;;;;;;;6239620;23;20000;-84
2023/01/13 08:53:15;;;;;;;62.90;25.52;;;;;;;;;;6213274;23;20023;-86
2023/01/13 08:55:40;;;;;;;60.80;22.13;;;;;;;;;;6235788;22;20011;-85
2023/01/13 08:58:09;;;;;;;69.82;28.42;;;;;;;;;;6208594;23;20079;-81
2023/01/13 09:00:35;;;;;;;57.90;21.60;;;;;;;;;;6234923;23;19996;-84
2023/01/13 09:03:00;;;;;;;51.78;20.40;;;;;;;;;;6237065;23;20710;-86
2023/01/13 09:05:32;;;;;;;47.17;19.90;;;;;;;;;;6214647;23;20011;-85
2023/01/13 09:07:57;;;;;;;59.53;20.95;;;;;;;;;;6212452;23;20068;-84
2023/01/13 09:10:23;;;;;;;50.05;20.35;;;;;;;;;;6240750;22;20008;-86
2023/01/13 09:15:32;;;;;;;68.88;25.77;;;;;;;;;;6219313;23;20104;-87
2023/01/13 09:17:59;;;;;;;64.32;24.23;;;;;;;;;;6240599;22;20439;-86
2023/01/13 09:20:24;;;;;;;68.97;25.60;;;;;;;;;;6244696;23;20371;-88
2023/01/13 09:22:50;;;;;;;71.15;25.83;;;;;;;;;;6214734;23;20003;-89
2023/01/13 09:25:15;;;;;;;75.22;26.02;;;;;;;;;;6193586;23;20331;-87
2023/01/13 09:27:41;;;;;;;64.10;24.52;;;;;;;;;;6224970;23;20032;-88
2023/01/13 09:30:07;;;;;;;83.20;26.98;;;;;;;;;;6228488;23;20007;-87
2023/01/13 09:32:32;;;;;;;70.20;27.38;;;;;;;;;;6227604;23;20027;-86
2023/01/13 09:35:01;;;;;;;69.28;26.48;;;;;;;;;;6248503;23;20012;-87
2023/01/13 09:37:34;;;;;;;65.63;25.33;;;;;;;;;;6248928;23;20000;-87
2023/01/13 09:40:00;;;;;;;74.13;25.80;;;;;;;;;;6246509;23;20008;-87
2023/01/13 09:45:35;;;;;;;78.27;27.47;;;;;;;;;;6248725;23;20023;-84
2023/01/13 09:48:10;;;;;;;65.95;25.95;;;;;;;;;;6224186;23;20234;-86
2023/01/13 09:51:00;;;;;;;60.58;22.75;;;;;;;;;;6248901;22;20106;-87
2023/01/13 09:53:32;;;;;;;64.10;24.05;;;;;;;;;;6245235;22;20007;-86
2023/01/13 09:55:57;;;;;;;57.20;23.33;;;;;;;;;;6240934;23;20328;-86
2023/01/13 09:58:23;;;;;;;53.05;22.90;;;;;;;;;;6245215;23;20007;-86
2023/01/13 10:01:17;;;;;;;53.70;20.85;;;;;;;;;;6247094;23;20066;-85
2023/01/13 10:03:43;;;;;;;61.03;24.58;;;;;;;;;;6246144;22;20015;-84
2023/01/13 10:06:19;;;;;;;48.28;20.27;;;;;;;;;;6244763;22;20008;-86
2023/01/13 10:08:46;;;;;;;46.85;20.77;;;;;;;;;;6245269;22;20062;-85
2023/01/13 10:14:31;;;;;;;51.20;22.10;;;;;;;;;;6245639;23;20008;-86
2023/01/13 10:17:14;;;;;;;55.45;23.52;;;;;;;;;;6249644;23;20000;-85
2023/01/13 10:19:43;;;;;;;55.92;23.20;;;;;;;;;;6252730;22;20000;-86
2023/01/13 10:22:11;;;;;;;59.42;23.45;;;;;;;;;;6254993;22;20008;-86
2023/01/13 10:24:55;;;;;;;44.30;21.50;;;;;;;;;;6259331;22;20008;-86
2023/01/13 10:27:33;;;;;;;52.70;22.80;;;;;;;;;;6258792;23;20030;-87
2023/01/13 10:30:11;;;;;;;57.13;24.33;;;;;;;;;;6251077;23;20008;-87
2023/01/13 10:32:36;;;;;;;56.88;24.52;;;;;;;;;;6243236;23;20422;-86
2023/01/13 10:35:02;;;;;;;49.13;21.98;;;;;;;;;;6220578;23;20047;-83
2023/01/13 10:37:28;;;;;;;53.35;25.30;;;;;;;;;;6250728;23;20054;-84
2023/01/13 10:39:55;;;;;;;54.20;25.70;;;;;;;;;;6245047;22;20008;-84
2023/01/13 10:42:22;;;;;;;62.90;27.05;;;;;;;;;;6220071;23;20000;-86
2023/01/13 10:44:54;;;;;;;52.65;24.90;;;;;;;;;;6242498;23;20008;-84
2023/01/13 10:47:35;;;;;;;57.65;28.00;;;;;;;;;;6241417;23;20008;-85
2023/01/13 10:50:04;;;;;;;59.38;26.75;;;;;;;;;;6216229;23;20071;-86
2023/01/13 10:52:31;;;;;;;50.10;24.98;;;;;;;;;;6245404;23;20450;-84
2023/01/13 10:54:56;;;;;;;53.13;25.08;;;;;;;;;;6191592;23;20000;-85
2023/01/13 10:57:23;;;;;;;53.67;24.50;;;;;;;;;;6247226;23;20145;-87
2023/01/13 10:59:49;;;;;;;47.58;22.90;;;;;;;;;;6220388;23;20004;-85
2023/01/13 11:02:15;;;;;;;40.95;20.38;;;;;;;;;;6221797;23;20004;-86
2023/01/13 11:04:52;;;;;;;38.08;19.50;;;;;;;;;;6220842;23;20130;-86
2023/01/13 11:07:33;;;;;;;31.90;15.95;;;;;;;;;;6243820;23;20035;-87
2023/01/13 11:10:08;;;;;;;33.70;16.83;;;;;;;;;;6241344;23;20000;-85
2023/01/13 11:12:40;;;;;;;30.75;16.50;;;;;;;;;;6241663;23;20000;-86
2023/01/13 11:15:08;;;;;;;34.33;16.92;;;;;;;;;;6242640;23;20048;-86
2023/01/13 11:17:40;;;;;;;34.72;17.23;;;;;;;;;;6190522;23;20005;-85
2023/01/13 11:20:18;;;;;;;35.72;18.77;;;;;;;;;;6241839;23;20510;-86
2023/01/13 11:22:50;;;;;;;42.20;21.98;;;;;;;;;;6243330;23;20497;-86
2023/01/13 11:25:31;;;;;;;38.78;19.55;;;;;;;;;;6242893;23;20091;-86
2023/01/13 11:28:00;;;;;;;36.70;17.88;;;;;;;;;;6218750;23;20011;-86
2023/01/13 11:30:55;;;;;;;49.15;23.75;;;;;;;;;;6217763;23;20339;-85
2023/01/13 11:33:42;;;;;;;71.25;29.75;;;;;;;;;;6244569;23;20039;-86
2023/01/13 11:36:10;;;;;;;62.47;28.60;;;;;;;;;;6244383;23;20044;-86
2023/01/13 11:38:57;;;;;;;70.45;29.25;;;;;;;;;;6220471;23;20015;-88
2023/01/13 11:41:35;;;;;;;77.90;34.95;;;;;;;;;;6244404;23;19996;-83
2023/01/13 11:44:09;;;;;;;70.78;34.17;;;;;;;;;;6244822;22;20004;-84
2023/01/13 11:46:35;;;;;;;75.97;37.08;;;;;;;;;;6214596;23;20031;-84
2023/01/13 11:49:00;;;;;;;89.57;40.88;;;;;;;;;;6216831;23;20018;-84
2023/01/13 11:51:28;;;;;;;90.90;42.35;;;;;;;;;;6241804;23;20030;-85
2023/01/13 11:53:59;;;;;;;88.93;41.35;;;;;;;;;;6240755;23;20424;-85
2023/01/13 11:56:37;;;;;;;87.15;39.38;;;;;;;;;;6241111;23;20254;-85
2023/01/13 11:59:14;;;;;;;85.82;39.33;;;;;;;;;;6242881;23;20000;-83
2023/01/13 12:02:02;;;;;;;79.20;36.55;;;;;;;;;;6245312;23;20079;-85
2023/01/13 12:04:48;;;;;;;90.28;37.85;;;;;;;;;;6246124;23;20012;-84
2023/01/13 12:07:19;;;;;;;69.43;31.60;;;;;;;;;;6242517;23;20008;-84
2023/01/13 12:10:16;;;;;;;75.28;34.03;;;;;;;;;;6243823;23;20000;-83
2023/01/13 12:13:06;;;;;;;55.42;27.00;;;;;;;;;;6222496;23;20004;-83
2023/01/13 12:15:53;;;;;;;48.25;23.10;;;;;;;;;;6223001;23;20016;-83
2023/01/13 12:18:29;;;;;;;42.30;22.02;;;;;;;;;;6241992;23;20004;-83
2023/01/13 12:21:17;;;;;;;45.50;20.92;;;;;;;;;;6243874;22;19997;-83
2023/01/13 12:23:50;;;;;;;41.80;19.52;;;;;;;;;;6240437;23;20008;-85
2023/01/13 12:26:15;;;;;;;36.33;18.85;;;;;;;;;;6240433;23;20006;-82
2023/01/13 12:28:50;;;;;;;36.13;18.15;;;;;;;;;;6240242;23;20028;-83
2023/01/13 12:31:17;;;;;;;37.25;17.52;;;;;;;;;;6213800;23;20016;-83
2023/01/13 12:33:52;;;;;;;37.33;18.50;;;;;;;;;;6218688;23;20075;-83
2023/01/13 12:36:48;;;;;;;35.95;17.90;;;;;;;;;;6241292;22;19996;-82
2023/01/13 12:39:32;;;;;;;53.55;25.92;;;;;;;;;;6240588;22;20016;-82
2023/01/13 12:45:08;;;;;;;38.95;20.02;;;;;;;;;;6196878;23;20076;-83
2023/01/13 12:47:38;;;;;;;32.97;17.13;;;;;;;;;;6240784;23;20351;-83
2023/01/13 12:50:25;;;;;;;33.67;17.03;;;;;;;;;;6241935;23;20126;-83
2023/01/13 12:52:57;;;;;;;38.58;19.45;;;;;;;;;;6242788;23;20078;-82
2023/01/13 12:55:26;;;;;;;39.20;20.17;;;;;;;;;;6215742;23;20034;-83
2023/01/13 12:58:06;;;;;;;49.58;24.77;;;;;;;;;;6215778;23;20066;-82
2023/01/13 13:00:38;;;;;;;;;;;;;;;;;;6241652;23;20011;-83
2023/01/13 13:03:09;;;;;;;34.25;17.80;;;;;;;;;;6241281;23;19912;-83
2023/01/13 13:05:53;;;;;;;38.85;18.20;;;;;;;;;;6215855;23;20455;-83
2023/01/13 13:08:38;;;;;;;40.80;18.17;;;;;;;;;;6241551;23;20004;-82
2023/01/13 13:13:57;;;;;;;41.25;18.73;;;;;;;;;;6242664;23;20019;-82
2023/01/13 13:16:26;;;;;;;38.70;17.52;;;;;;;;;;6190081;23;20000;-85
2023/01/13 13:18:52;;;;;;;38.90;18.75;;;;;;;;;;6243246;23;20039;-81
2023/01/13 13:21:17;;;;;;;36.42;19.17;;;;;;;;;;6216191;23;20007;-85
2023/01/13 13:23:46;;;;;;;35.00;17.88;;;;;;;;;;6219025;23;20366;-81
2023/01/13 13:26:22;;;;;;;39.40;18.63;;;;;;;;;;6219722;23;20000;-84
2023/01/13 13:29:23;;;;;;;36.42;19.02;;;;;;;;;;6245047;23;20402;-82
2023/01/13 13:32:16;;;;;;;40.22;20.00;;;;;;;;;;6094232;23;20187;-83
2023/01/13 13:34:44;;;;;;;27.73;15.38;;;;;;;;;;6241757;23;20402;-82
2023/01/13 13:46:45;;;;;;;58.80;28.02;;;;;;;;;;6218807;23;20022;-83
2023/01/13 13:46:47;;;;;;;41.55;22.10;;;;;;;;;;6182690;23;20060;-85
2023/01/13 13:49:18;;;;;;;35.60;16.67;;;;;;;;;;6236632;23;20004;-82
2023/01/13 13:51:45;;;;;;;;;;;;;;;;;;6220171;23;20386;-82
2023/01/13 13:54:19;;;;;;;32.42;17.25;;;;;;;;;;6244423;23;20290;-83
2023/01/13 13:56:46;;;;;;;30.98;15.65;;;;;;;;;;6219690;23;20347;-83
2023/01/13 13:59:15;;;;;;;33.00;16.50;;;;;;;;;;6218932;23;20351;-83
2023/01/13 14:01:42;;;;;;;33.58;17.92;;;;;;;;;;6246539;23;20022;-84
2023/01/13 14:04:13;;;;;;;33.45;17.13;;;;;;;;;;6220432;23;20018;-83
2023/01/13 14:06:47;;;;;;;;;;;;;;;;;;6246835;23;20014;-83
2023/01/13 14:09:16;;;;;;;33.25;17.48;;;;;;;;;;6245133;23;20134;-84
2023/01/13 14:11:42;;;;;;;34.17;15.93;;;;;;;;;;6220049;23;20039;-83
2023/01/13 14:14:16;;;;;;;33.72;16.35;;;;;;;;;;6246200;23;20087;-83
2023/01/13 14:16:41;;;;;;;31.15;16.75;;;;;;;;;;6245523;23;20031;-83
2023/01/13 14:19:33;;;;;;;37.53;17.75;;;;;;;;;;6220764;23;20008;-83
2023/01/13 14:21:59;;;;;;;38.03;18.25;;;;;;;;;;6222583;23;20007;-84
2023/01/13 14:24:25;;;;;;;38.38;18.73;;;;;;;;;;6193896;23;20423;-83
2023/01/13 14:26:52;;;;;;;37.63;18.33;;;;;;;;;;6246210;23;20081;-84
2023/01/13 14:29:21;;;;;;;34.63;17.20;;;;;;;;;;6222437;23;19996;-82
2023/01/13 14:31:48;;;;;;;40.15;18.58;;;;;;;;;;6248036;23;20004;-83
2023/01/13 14:34:14;;;;;;;39.90;18.70;;;;;;;;;;6245253;23;20007;-82
2023/01/13 14:36:41;;;;;;;45.17;20.58;;;;;;;;;;6243046;23;20030;-82
2023/01/13 14:39:09;;;;;;;51.58;22.48;;;;;;;;;;6216336;23;20471;-84
2023/01/13 14:41:35;;;;;;;57.97;24.92;;;;;;;;;;6243708;22;20040;-84
2023/01/13 14:44:02;;;;;;;57.90;26.10;;;;;;;;;;6216740;23;20008;-84
2023/01/13 14:46:46;;;;;;;49.60;24.45;;;;;;;;;;6215180;23;20004;-84
2023/01/13 14:49:39;;;;;;;55.05;24.30;;;;;;;;;;6247069;23;20031;-84
2023/01/13 14:52:19;;;;;;;43.22;20.70;;;;;;;;;;6239989;23;20010;-83
2023/01/13 14:54:47;;;;;;;36.00;18.27;;;;;;;;;;6216471;23;20080;-85
2023/01/13 14:57:23;;;;;;;34.00;16.48;;;;;;;;;;6241882;22;20289;-84
2023/01/13 14:59:55;;;;;;;35.30;16.90;;;;;;;;;;6241335;23;20003;-85
2023/01/13 15:02:47;;;;;;;31.15;15.00;;;;;;;;;;6241290;23;20008;-84
2023/01/13 15:05:16;;;;;;;24.20;12.23;;;;;;;;;;6235707;23;20043;-88
2023/01/13 15:07:48;;;;;;;29.63;13.38;;;;;;;;;;6244328;23;20027;-83
2023/01/13 15:10:18;;;;;;;29.13;14.20;;;;;;;;;;6242404;23;20015;-84
2023/01/13 15:12:44;;;;;;;29.50;12.75;;;;;;;;;;6219057;23;20004;-86
2023/01/13 15:15:22;;;;;;;29.95;13.90;;;;;;;;;;6245420;23;20011;-88
2023/01/13 15:17:48;;;;;;;29.80;14.35;;;;;;;;;;6243336;23;20423;-84
2023/01/13 15:20:14;;;;;;;30.80;14.68;;;;;;;;;;6218257;23;20000;-85
2023/01/13 15:22:40;;;;;;;36.03;16.17;;;;;;;;;;6243461;23;20459;-84
2023/01/13 15:25:08;;;;;;;37.88;17.88;;;;;;;;;;6242889;23;20004;-84
2023/01/13 15:27:34;;;;;;;35.85;15.90;;;;;;;;;;6218569;23;20340;-85
2023/01/13 15:29:59;;;;;;;32.75;16.10;;;;;;;;;;6243479;23;20011;-85
2023/01/13 15:32:24;;;;;;;32.53;15.57;;;;;;;;;;6218614;23;20423;-84
2023/01/13 15:34:51;;;;;;;32.80;14.93;;;;;;;;;;6243969;23;20007;-84